createdAt,value
2018-11-20T00:01:47.561Z,2.90
2018-11-20T00:04:34.590Z,3.00
2018-11-20T00:07:25.952Z,2.90
2018-11-20T00:10:12.878Z,2.90
2018-11-20T00:13:13.423Z,2.80
2018-11-20T00:16:00.544Z,2.80
2018-11-20T00:18:49.060Z,2.70
2018-11-20T00:21:40.532Z,2.70
2018-11-20T00:24:40.801Z,2.70
2018-11-20T00:27:29.283Z,2.70
2018-11-20T00:30:32.946Z,2.70
2018-11-20T00:33:21.436Z,2.50
2018-11-20T00:36:08.693Z,2.40
2018-11-20T00:38:47.657Z,2.40
2018-11-20T00:41:38.222Z,2.30
2018-11-20T00:44:23.128Z,2.20
2018-11-20T00:47:11.138Z,2.30
2018-11-20T00:49:52.438Z,2.30
2018-11-20T00:52:56.289Z,2.40
2018-11-20T00:56:29.018Z,2.40
2018-11-20T00:59:13.102Z,2.50
2018-11-20T01:02:13.006Z,2.50
2018-11-20T01:05:19.601Z,2.50
2018-11-20T01:08:10.958Z,2.50
2018-11-20T01:10:57.792Z,2.60
2018-11-20T01:14:01.409Z,2.60
2018-11-20T01:16:55.633Z,2.70
2018-11-20T01:19:52.989Z,2.60
2018-11-20T01:22:40.381Z,2.70
2018-11-20T01:25:27.739Z,2.70
2018-11-20T01:28:28.443Z,2.50
2018-11-20T01:31:13.662Z,2.60
2018-11-20T01:34:00.777Z,2.70
2018-11-20T01:36:49.650Z,2.60
2018-11-20T01:39:44.314Z,2.70
2018-11-20T01:42:35.510Z,2.60
2018-11-20T01:45:26.817Z,2.50
2018-11-20T01:48:30.647Z,2.50
2018-11-20T01:51:18.110Z,2.60
2018-11-20T01:54:16.487Z,2.50
2018-11-20T01:56:57.388Z,2.60
2018-11-20T01:59:48.792Z,2.50
2018-11-20T02:02:35.810Z,2.50
2018-11-20T02:05:27.842Z,2.60
2018-11-20T02:08:14.896Z,2.60
2018-11-20T02:11:01.934Z,2.40
2018-11-20T02:14:10.918Z,2.50
2018-11-20T02:17:20.496Z,2.40
2018-11-20T02:20:20.938Z,2.50
2018-11-20T02:23:15.168Z,2.40
2018-11-20T02:26:18.744Z,2.50
2018-11-20T02:29:05.942Z,2.50
2018-11-20T02:31:50.238Z,2.40
2018-11-20T02:34:29.000Z,2.40
2018-11-20T02:37:29.583Z,2.40
2018-11-20T02:40:33.250Z,2.40
2018-11-20T02:43:30.560Z,2.50
2018-11-20T02:46:15.501Z,2.40
2018-11-20T02:49:02.548Z,2.40
2018-11-20T02:52:06.162Z,2.40
2018-11-20T02:54:54.044Z,2.40
2018-11-20T02:57:51.641Z,2.40
2018-11-20T03:00:46.223Z,2.30
2018-11-20T03:03:46.825Z,2.40
2018-11-20T03:06:32.611Z,2.50
2018-11-20T03:09:17.681Z,2.50
2018-11-20T03:12:15.246Z,2.40
2018-11-20T03:15:09.616Z,2.50
2018-11-20T03:17:56.644Z,2.50
2018-11-20T03:20:53.826Z,2.50
2018-11-20T03:23:36.815Z,2.50
2018-11-20T03:26:43.532Z,2.50
2018-11-20T03:30:35.139Z,2.40
2018-11-20T03:33:32.657Z,2.40
2018-11-20T03:36:20.051Z,2.40
2018-11-20T03:39:14.448Z,2.40
2018-11-20T03:42:02.980Z,2.40
2018-11-20T03:45:06.829Z,2.50
2018-11-20T03:47:53.943Z,2.40
2018-11-20T03:50:42.287Z,2.30
2018-11-20T03:53:49.078Z,2.40
2018-11-20T03:56:46.764Z,2.40
2018-11-20T03:59:53.072Z,2.40
2018-11-20T04:02:37.870Z,2.40
2018-11-20T04:05:35.531Z,2.40
2018-11-20T04:08:24.152Z,2.50
2018-11-20T04:11:24.858Z,2.50
2018-11-20T04:14:11.795Z,2.50
2018-11-20T04:17:06.034Z,2.60
2018-11-20T04:19:43.807Z,2.50
2018-11-20T04:22:28.516Z,2.50
2018-11-20T04:25:16.997Z,2.40
2018-11-20T04:27:56.894Z,2.40
2018-11-20T04:31:30.231Z,2.40
2018-11-20T04:34:33.608Z,2.30
2018-11-20T04:37:22.160Z,2.40
2018-11-20T04:40:16.738Z,2.40
2018-11-20T04:43:14.921Z,2.40
2018-11-20T04:46:03.498Z,2.40
2018-11-20T04:48:50.683Z,2.50
2018-11-20T04:51:36.778Z,2.40
2018-11-20T04:54:34.372Z,2.40
2018-11-20T04:57:28.882Z,2.30
2018-11-20T05:00:22.353Z,2.30
2018-11-20T05:03:16.620Z,2.30
2018-11-20T05:06:05.995Z,2.30
2018-11-20T05:08:49.546Z,2.30
2018-11-20T05:11:38.066Z,2.30
2018-11-20T05:14:41.764Z,2.30
2018-11-20T05:17:28.958Z,2.30
2018-11-20T05:20:16.369Z,2.30
2018-11-20T05:23:19.806Z,2.30
2018-11-20T05:25:56.440Z,2.30
2018-11-20T05:28:41.183Z,2.30
2018-11-20T05:31:28.217Z,2.40
2018-11-20T05:34:19.533Z,2.40
2018-11-20T05:36:58.229Z,2.40
2018-11-20T05:39:46.377Z,2.40
2018-11-20T05:42:33.575Z,2.30
2018-11-20T05:45:14.221Z,2.40
2018-11-20T05:47:57.022Z,2.40
2018-11-20T05:50:45.493Z,2.50
2018-11-20T05:53:36.850Z,2.50
2018-11-20T05:56:31.698Z,2.50
2018-11-20T05:59:18.785Z,2.40
2018-11-20T06:01:55.791Z,2.30
2018-11-20T06:04:32.318Z,2.40
2018-11-20T06:07:19.641Z,2.30
2018-11-20T06:10:06.945Z,2.50
2018-11-20T06:12:53.445Z,2.40
2018-11-20T06:15:44.602Z,2.40
2018-11-20T06:18:31.152Z,2.40
2018-11-20T06:21:18.258Z,2.30
2018-11-20T06:24:09.738Z,2.30
2018-11-20T06:26:58.228Z,2.40
2018-11-20T06:29:45.362Z,2.30
2018-11-20T06:32:44.824Z,2.30
2018-11-20T06:35:36.327Z,2.30
2018-11-20T06:38:23.361Z,2.20
2018-11-20T06:41:10.643Z,2.20
2018-11-20T06:44:11.312Z,2.30
2018-11-20T06:46:56.426Z,2.20
2018-11-20T06:49:44.925Z,2.20
2018-11-20T06:52:32.072Z,2.30
2018-11-20T06:55:32.201Z,2.40
2018-11-20T06:58:23.552Z,2.40
2018-11-20T07:01:17.728Z,2.30
2018-11-20T07:04:24.398Z,2.30
2018-11-20T07:07:31.000Z,2.30
2018-11-20T07:10:28.745Z,2.30
2018-11-20T07:13:29.419Z,2.30
2018-11-20T07:16:52.701Z,2.30
2018-11-20T07:19:46.100Z,2.30
2018-11-20T07:22:38.575Z,2.30
2018-11-20T07:25:27.601Z,2.30
2018-11-20T07:28:24.927Z,2.20
2018-11-20T07:31:31.913Z,2.30
2018-11-20T07:34:22.917Z,2.30
2018-11-20T07:37:20.788Z,2.30
2018-11-20T07:40:09.103Z,2.50
2018-11-20T07:42:56.282Z,2.40
2018-11-20T07:45:43.392Z,2.40
2018-11-20T07:48:30.617Z,2.40
2018-11-20T07:51:17.984Z,2.40
2018-11-20T07:54:05.141Z,2.50
2018-11-20T07:56:52.821Z,2.50
2018-11-20T07:59:39.948Z,2.60
2018-11-20T08:02:18.787Z,2.60
2018-11-20T08:05:07.187Z,2.50
2018-11-20T08:07:55.652Z,2.60
2018-11-20T08:10:46.787Z,2.60
2018-11-20T08:13:38.159Z,2.60
2018-11-20T08:16:25.292Z,2.70
2018-11-20T08:19:03.931Z,2.80
2018-11-20T08:21:52.448Z,2.70
2018-11-20T08:24:52.895Z,2.80
2018-11-20T08:27:47.403Z,2.80
2018-11-20T08:30:38.678Z,2.90
2018-11-20T08:33:17.132Z,3.00
2018-11-20T08:36:04.173Z,2.90
2018-11-20T08:38:52.704Z,3.00
2018-11-20T08:41:56.061Z,3.10
2018-11-20T08:44:42.949Z,2.90
2018-11-20T08:47:30.106Z,2.90
2018-11-20T08:50:24.549Z,3.10
2018-11-20T08:53:19.197Z,3.10
2018-11-20T08:56:08.084Z,3.00
2018-11-20T08:59:04.165Z,3.10
2018-11-20T09:02:33.597Z,3.10
2018-11-20T09:05:23.652Z,3.10
2018-11-20T09:08:29.228Z,3.10
2018-11-20T09:11:22.805Z,3.20
2018-11-20T09:14:19.570Z,3.20
2018-11-20T09:17:06.065Z,3.40
2018-11-20T09:19:52.582Z,3.30
2018-11-20T09:22:48.944Z,3.30
2018-11-20T09:25:39.431Z,3.50
2018-11-20T09:28:32.717Z,3.40
2018-11-20T09:31:23.470Z,3.40
2018-11-20T09:34:09.618Z,3.40
2018-11-20T09:36:59.835Z,3.40
2018-11-20T09:39:47.895Z,3.40
2018-11-20T09:42:30.468Z,3.40
2018-11-20T09:45:54.632Z,3.30
2018-11-20T09:48:54.897Z,3.30
2018-11-20T09:51:42.930Z,3.40
2018-11-20T09:54:30.569Z,3.40
2018-11-20T09:57:16.675Z,3.60
2018-11-20T10:00:02.977Z,3.40
2018-11-20T10:03:02.534Z,3.40
2018-11-20T10:05:42.663Z,3.40
2018-11-20T10:08:25.383Z,3.40
2018-11-20T10:11:28.032Z,3.50
2018-11-20T10:14:15.906Z,3.40
2018-11-20T10:16:58.354Z,3.50
2018-11-20T10:19:44.954Z,3.50
2018-11-20T10:22:29.204Z,3.50
2018-11-20T10:25:16.899Z,3.60
2018-11-20T10:28:19.972Z,3.40
2018-11-20T10:31:06.185Z,3.40
2018-11-20T10:33:58.846Z,3.40
2018-11-20T10:36:55.462Z,3.40
2018-11-20T10:39:37.090Z,3.20
2018-11-20T10:42:23.155Z,3.20
2018-11-20T10:45:19.712Z,3.20
2018-11-20T10:48:05.957Z,3.30
2018-11-20T10:50:52.367Z,3.40
2018-11-20T10:53:48.983Z,3.20
2018-11-20T10:56:36.734Z,3.40
2018-11-20T10:59:23.051Z,3.40
2018-11-20T11:02:09.250Z,3.50
2018-11-20T11:04:56.084Z,3.50
2018-11-20T11:07:42.223Z,3.60
2018-11-20T11:10:35.493Z,3.60
2018-11-20T11:13:21.985Z,3.50
2018-11-20T11:16:15.663Z,3.30
2018-11-20T11:18:59.059Z,3.50
2018-11-20T11:21:52.499Z,3.50
2018-11-20T11:24:36.725Z,3.60
2018-11-20T11:27:20.846Z,3.50
2018-11-20T11:30:03.546Z,3.50
2018-11-20T11:32:49.975Z,3.40
2018-11-20T11:35:37.942Z,3.50
2018-11-20T11:38:37.723Z,3.40
2018-11-20T11:41:25.425Z,3.50
2018-11-20T11:44:25.088Z,3.40
2018-11-20T11:47:27.670Z,3.40
2018-11-20T11:50:15.342Z,3.50
2018-11-20T11:53:01.627Z,3.50
2018-11-20T11:56:07.320Z,3.60
2018-11-20T11:59:01.036Z,3.50
2018-11-20T12:04:32.811Z,3.40
2018-11-20T12:07:38.530Z,3.40
2018-11-20T12:10:30.140Z,3.30
2018-11-20T12:13:23.782Z,3.50
2018-11-20T12:16:10.305Z,3.30
2018-11-20T12:19:12.955Z,3.40
2018-11-20T12:21:57.901Z,3.30
2018-11-20T12:24:51.738Z,3.20
2018-11-20T12:27:42.272Z,3.20
2018-11-20T12:30:28.759Z,3.20
2018-11-20T12:33:15.078Z,3.20
2018-11-20T12:36:01.745Z,3.20
2018-11-20T12:38:55.288Z,3.40
2018-11-20T12:41:46.330Z,3.40
2018-11-20T12:44:33.568Z,3.40
2018-11-20T12:47:21.258Z,3.40
2018-11-20T12:50:10.642Z,3.40
2018-11-20T12:52:50.868Z,3.50
2018-11-20T12:55:38.218Z,3.50
2018-11-20T12:58:24.493Z,3.40
2018-11-20T13:01:12.193Z,3.40
2018-11-20T13:04:08.916Z,3.50
2018-11-20T13:06:54.990Z,3.50
2018-11-20T13:09:45.243Z,3.30
2018-11-20T13:12:31.744Z,3.40
2018-11-20T13:15:16.598Z,3.40
2018-11-20T13:18:05.919Z,3.40
2018-11-20T13:20:52.530Z,3.40
2018-11-20T13:23:45.243Z,3.20
2018-11-20T13:26:28.882Z,3.10
2018-11-20T13:29:16.581Z,3.10
2018-11-20T13:31:56.591Z,3.10
2018-11-20T13:34:42.336Z,2.90
2018-11-20T13:37:28.597Z,2.70
2018-11-20T13:40:19.596Z,2.70
2018-11-20T13:43:13.359Z,2.60
2018-11-20T13:46:03.591Z,2.50
2018-11-20T13:48:59.828Z,2.30
2018-11-20T13:52:06.030Z,2.30
2018-11-20T13:54:52.455Z,2.10
2018-11-20T13:57:38.923Z,1.90
2018-11-20T14:00:26.643Z,1.80
2018-11-20T14:03:23.486Z,1.70
2018-11-20T14:06:11.305Z,1.50
2018-11-20T14:08:56.311Z,1.40
2018-11-20T14:11:37.650Z,1.30
2018-11-20T14:14:27.253Z,1.20
2018-11-20T14:17:17.628Z,1.30
2018-11-20T14:20:06.928Z,1.30
2018-11-20T14:22:52.874Z,1.30
2018-11-20T14:25:45.278Z,1.20
2018-11-20T14:28:20.270Z,1.20
2018-11-20T14:31:07.115Z,1.20
2018-11-20T14:34:10.100Z,1.20
2018-11-20T14:36:56.259Z,1.30
2018-11-20T14:39:42.828Z,1.20
2018-11-20T14:42:33.379Z,1.10
2018-11-20T14:45:26.663Z,1.20
2018-11-20T14:48:29.460Z,1.10
2018-11-20T14:51:15.863Z,1.10
2018-11-20T14:54:18.525Z,1.20
2018-11-20T14:57:09.687Z,1.20
2018-11-20T14:59:55.992Z,1.20
2018-11-20T15:02:40.026Z,1.20
2018-11-20T15:05:33.948Z,1.10
2018-11-20T15:08:24.711Z,1.10
2018-11-20T15:11:07.780Z,1.20
2018-11-20T15:14:02.204Z,1.20
2018-11-20T15:16:43.947Z,1.20
2018-11-20T15:19:31.637Z,1.20
2018-11-20T15:22:19.400Z,1.20
2018-11-20T15:25:09.555Z,1.20
2018-11-20T15:27:54.796Z,1.20
2018-11-20T15:30:48.652Z,1.20
2018-11-20T15:33:42.487Z,1.30
2018-11-20T15:36:42.354Z,1.20
2018-11-20T15:39:35.621Z,1.20
2018-11-20T15:42:20.104Z,1.20
2018-11-20T15:45:17.086Z,1.20
2018-11-20T15:48:16.697Z,1.30
2018-11-20T15:51:22.942Z,1.20
2018-11-20T15:54:13.646Z,1.30
2018-11-20T15:57:00.121Z,1.30
2018-11-20T15:59:56.498Z,1.20
2018-11-20T16:02:46.864Z,1.30
2018-11-20T16:05:46.731Z,1.30
2018-11-20T16:08:34.480Z,1.40
2018-11-20T16:11:20.889Z,1.30
2018-11-20T16:14:23.607Z,1.30
2018-11-20T16:17:17.738Z,1.40
2018-11-20T16:20:03.348Z,1.50
2018-11-20T16:22:50.081Z,1.40
2018-11-20T16:25:53.060Z,1.40
2018-11-20T16:28:39.176Z,1.50
2018-11-20T16:31:29.617Z,1.40
2018-11-20T16:34:29.377Z,1.40
2018-11-20T16:37:22.929Z,1.30
2018-11-20T16:40:14.948Z,1.30
2018-11-20T16:43:00.259Z,1.40
2018-11-20T16:45:50.532Z,1.30
2018-11-20T16:48:32.278Z,1.40
2018-11-20T16:51:18.502Z,1.30
2018-11-20T16:54:05.087Z,1.40
2018-11-20T16:56:56.609Z,1.30
2018-11-20T16:59:56.505Z,1.40
2018-11-20T17:02:37.629Z,1.40
2018-11-20T17:05:26.527Z,1.50
2018-11-20T17:08:17.038Z,1.50
2018-11-20T17:11:16.703Z,1.50
2018-11-20T17:13:58.875Z,1.50
2018-11-20T17:16:45.221Z,1.50
2018-11-20T17:19:31.754Z,1.60
2018-11-20T17:22:19.485Z,1.60
2018-11-20T17:25:06.958Z,1.60
2018-11-20T17:28:09.615Z,1.50
2018-11-20T17:31:12.459Z,1.50
2018-11-20T17:33:58.741Z,1.50
2018-11-20T17:36:44.969Z,1.60
2018-11-20T17:39:35.375Z,1.60
2018-11-20T17:42:21.796Z,1.60
2018-11-20T17:45:21.187Z,1.50
2018-11-20T17:48:10.590Z,1.50
2018-11-20T17:51:07.137Z,1.40
2018-11-20T17:53:48.488Z,1.40
2018-11-20T17:56:32.469Z,1.30
2018-11-20T17:59:22.758Z,1.30
2018-11-20T18:02:22.908Z,1.30
2018-11-20T18:05:13.662Z,1.40
2018-11-20T18:07:59.911Z,1.30
2018-11-20T18:11:05.731Z,1.40
2018-11-20T18:13:52.437Z,1.40
2018-11-20T18:16:38.810Z,1.30
2018-11-20T18:19:25.041Z,1.40
2018-11-20T18:22:06.347Z,1.30
2018-11-20T18:24:46.658Z,1.40
2018-11-20T18:27:27.711Z,1.50
2018-11-20T18:30:20.916Z,1.50
2018-11-20T18:33:08.622Z,1.50
2018-11-20T18:35:55.082Z,1.50
2018-11-20T18:38:42.756Z,1.50
2018-11-20T18:41:28.950Z,1.50
2018-11-20T18:44:19.253Z,1.60
2018-11-20T18:47:11.054Z,1.60
2018-11-20T18:50:01.876Z,1.70
2018-11-20T18:52:43.161Z,1.70
2018-11-20T18:55:50.047Z,1.70
2018-11-20T18:58:36.920Z,1.80
2018-11-20T19:01:22.838Z,1.80
2018-11-20T19:04:22.467Z,1.80
2018-11-20T19:07:09.108Z,1.90
2018-11-20T19:10:06.586Z,1.80
2018-11-20T19:12:53.014Z,1.90
2018-11-20T19:15:58.799Z,1.90
2018-11-20T19:19:04.878Z,1.90
2018-11-20T19:22:01.800Z,1.80
2018-11-20T19:24:47.107Z,1.80
2018-11-20T19:27:39.082Z,1.80
2018-11-20T19:30:28.634Z,1.80
2018-11-20T19:33:22.042Z,1.90
2018-11-20T19:36:08.827Z,1.80
2018-11-20T19:39:11.476Z,1.90
2018-11-20T19:42:08.544Z,2.00
2018-11-20T19:44:53.586Z,2.00
2018-11-20T19:47:53.659Z,2.00
2018-11-20T19:50:44.195Z,1.90
2018-11-20T19:53:30.759Z,1.90
2018-11-20T19:56:27.505Z,1.90
2018-11-20T19:59:26.580Z,2.00
2018-11-20T20:02:12.965Z,2.00
2018-11-20T20:05:06.922Z,2.00
2018-11-20T20:07:54.756Z,2.00
2018-11-20T20:10:49.286Z,1.90
2018-11-20T20:13:46.002Z,2.00
2018-11-20T20:16:32.280Z,1.90
2018-11-20T20:19:20.508Z,1.90
2018-11-20T20:22:20.483Z,1.80
2018-11-20T20:25:08.293Z,1.90
2018-11-20T20:27:59.843Z,2.00
2018-11-20T20:30:45.076Z,1.90
2018-11-20T20:33:29.979Z,1.80
2018-11-20T20:36:17.781Z,1.80
2018-11-20T20:39:07.134Z,1.90
2018-11-20T20:42:03.709Z,1.90
2018-11-20T20:44:47.193Z,1.80
2018-11-20T20:47:33.481Z,2.00
2018-11-20T20:50:17.101Z,2.00
2018-11-20T20:53:03.568Z,1.90
2018-11-20T20:55:50.233Z,1.90
2018-11-20T20:58:52.990Z,1.90
2018-11-20T21:01:35.897Z,2.00
2018-11-20T21:04:22.404Z,1.90
2018-11-20T21:07:16.471Z,1.90
2018-11-20T21:10:03.131Z,2.00
2018-11-20T21:12:49.497Z,2.00
2018-11-20T21:15:49.033Z,2.00
2018-11-20T21:18:39.612Z,2.00
2018-11-20T21:21:25.900Z,2.00
2018-11-20T21:24:25.801Z,1.90
2018-11-20T21:27:22.763Z,1.80
2018-11-20T21:30:19.974Z,1.80
2018-11-20T21:33:16.005Z,1.70
2018-11-20T21:36:09.564Z,1.60
2018-11-20T21:38:55.852Z,1.70
2018-11-20T21:41:42.066Z,1.70
2018-11-20T21:44:32.392Z,1.80
2018-11-20T21:47:18.543Z,1.90
2018-11-20T21:50:15.357Z,1.90
2018-11-20T21:53:01.999Z,2.00
2018-11-20T21:55:55.480Z,1.90
2018-11-20T21:58:30.782Z,1.90
2018-11-20T22:01:36.556Z,1.90
2018-11-20T22:04:18.358Z,2.00
2018-11-20T22:07:06.791Z,2.00
2018-11-20T22:09:54.534Z,2.00
2018-11-20T22:12:47.815Z,2.00
2018-11-20T22:15:34.192Z,2.00
2018-11-20T22:18:32.219Z,1.90
2018-11-20T22:21:37.900Z,1.90
2018-11-20T22:24:24.988Z,1.90
2018-11-20T22:27:30.738Z,2.00
2018-11-20T22:30:17.370Z,1.90
2018-11-20T22:33:03.505Z,1.90
2018-11-20T22:35:51.409Z,2.00
2018-11-20T22:38:34.414Z,2.00
2018-11-20T22:41:18.730Z,2.00
2018-11-20T22:44:05.118Z,1.90
2018-11-20T22:47:04.683Z,1.80
2018-11-20T22:49:50.955Z,1.80
2018-11-20T22:52:53.609Z,1.90
2018-11-20T22:55:47.003Z,1.90
2018-11-20T22:58:30.838Z,2.00
2018-11-20T23:01:21.372Z,1.90
2018-11-20T23:04:09.084Z,1.80
2018-11-20T23:06:55.487Z,1.80
2018-11-20T23:09:24.129Z,1.80
2018-11-20T23:11:52.813Z,1.80
2018-11-20T23:14:21.387Z,1.80
2018-11-20T23:16:49.991Z,1.70
2018-11-20T23:19:18.553Z,1.70
2018-11-20T23:21:47.138Z,1.80
2018-11-20T23:24:16.615Z,1.80
2018-11-20T23:26:45.441Z,1.90
2018-11-20T23:29:14.010Z,2.00
2018-11-20T23:31:42.617Z,2.00
2018-11-20T23:34:11.240Z,1.80
2018-11-20T23:36:39.816Z,1.80
2018-11-20T23:39:09.621Z,1.80
2018-11-20T23:41:38.184Z,1.80
2018-11-20T23:44:06.772Z,1.70
2018-11-20T23:46:35.360Z,1.60
2018-11-20T23:49:03.973Z,1.60
2018-11-20T23:51:33.056Z,1.60
2018-11-20T23:54:01.145Z,1.60
2018-11-20T23:56:29.712Z,1.60
2018-11-20T23:58:58.307Z,1.60
